createdAt,value
2022-10-18T00:01:13.917Z,17.10
2022-10-18T00:03:48.827Z,18.10
2022-10-18T00:06:22.051Z,17.10
2022-10-18T00:08:52.860Z,17.00
2022-10-18T00:11:29.649Z,17.00
2022-10-18T00:14:01.114Z,17.50
2022-10-18T00:16:33.140Z,16.70
2022-10-18T00:19:04.627Z,17.00
2022-10-18T00:21:38.941Z,17.00
2022-10-18T00:24:11.106Z,17.00
2022-10-18T00:26:47.135Z,17.00
2022-10-18T00:29:20.556Z,17.10
2022-10-18T00:31:51.487Z,17.10
2022-10-18T00:34:22.301Z,17.10
2022-10-18T00:36:58.977Z,17.10
2022-10-18T00:39:30.632Z,17.00
2022-10-18T00:42:07.797Z,17.50
2022-10-18T00:45:04.530Z,17.10
2022-10-18T00:47:37.425Z,17.50
2022-10-18T00:50:14.237Z,18.10
2022-10-18T00:52:50.307Z,16.90
2022-10-18T00:55:21.790Z,16.90
2022-10-18T00:57:59.472Z,16.90
2022-10-18T01:00:32.692Z,18.30
2022-10-18T01:03:03.538Z,17.00
2022-10-18T01:05:46.265Z,17.30
2022-10-18T01:08:35.235Z,17.00
2022-10-18T01:11:21.151Z,16.90
2022-10-18T01:14:10.431Z,16.90
2022-10-18T01:17:05.847Z,17.30
2022-10-18T01:20:05.713Z,17.20
2022-10-18T01:22:41.431Z,16.90
2022-10-18T01:25:29.916Z,17.20
2022-10-18T01:28:08.092Z,16.90
2022-10-18T01:30:45.994Z,16.80
2022-10-18T01:33:35.579Z,16.70
2022-10-18T01:36:13.023Z,18.00
2022-10-18T01:38:46.362Z,16.70
2022-10-18T01:41:21.574Z,16.80
2022-10-18T01:44:02.212Z,17.60
2022-10-18T01:46:39.296Z,16.80
2022-10-18T01:49:17.523Z,18.00
2022-10-18T01:51:48.565Z,16.90
2022-10-18T01:54:24.176Z,16.80
2022-10-18T01:57:02.821Z,16.70
2022-10-18T01:59:49.938Z,16.80
2022-10-18T02:02:43.160Z,17.00
2022-10-18T02:05:25.624Z,16.70
2022-10-18T02:08:12.607Z,16.50
2022-10-18T02:10:58.483Z,16.70
2022-10-18T02:13:38.334Z,17.30
2022-10-18T02:16:17.205Z,16.80
2022-10-18T02:18:58.770Z,16.80
2022-10-18T02:21:31.939Z,16.70
2022-10-18T02:24:06.605Z,17.10
2022-10-18T02:26:38.693Z,16.70
2022-10-18T02:29:11.904Z,17.20
2022-10-18T02:31:53.787Z,17.50
2022-10-18T02:34:35.384Z,16.70
2022-10-18T02:37:06.904Z,16.70
2022-10-18T02:39:44.348Z,16.70
2022-10-18T02:42:16.369Z,16.80
2022-10-18T02:44:47.454Z,16.80
2022-10-18T02:47:23.497Z,16.80
2022-10-18T02:49:56.915Z,16.70
2022-10-18T02:52:27.784Z,16.80
2022-10-18T02:55:03.058Z,16.70
2022-10-18T02:57:34.342Z,17.00
2022-10-18T03:00:06.098Z,17.00
2022-10-18T03:02:36.898Z,16.80
2022-10-18T03:05:11.840Z,16.70
2022-10-18T03:07:42.648Z,16.80
2022-10-18T03:10:13.392Z,16.80
2022-10-18T03:12:44.279Z,18.00
2022-10-18T03:15:15.573Z,16.80
2022-10-18T03:17:48.754Z,16.90
2022-10-18T03:20:24.397Z,16.70
2022-10-18T03:22:57.194Z,16.80
2022-10-18T03:25:27.967Z,16.70
2022-10-18T03:27:58.736Z,17.90
2022-10-18T03:30:31.438Z,16.70
2022-10-18T03:33:05.146Z,16.70
2022-10-18T03:35:38.491Z,16.70
2022-10-18T03:38:09.330Z,17.00
2022-10-18T03:40:43.342Z,16.70
2022-10-18T03:43:14.176Z,16.70
2022-10-18T03:45:47.221Z,17.40
2022-10-18T03:48:33.792Z,17.20
2022-10-18T03:51:32.055Z,16.70
2022-10-18T03:54:11.882Z,16.70
2022-10-18T03:56:55.534Z,16.90
2022-10-18T03:59:26.485Z,17.10
2022-10-18T04:01:57.345Z,16.70
2022-10-18T04:04:30.554Z,16.70
2022-10-18T04:07:03.982Z,16.70
2022-10-18T04:09:34.906Z,16.70
2022-10-18T04:12:08.044Z,16.70
2022-10-18T04:14:38.792Z,16.70
2022-10-18T04:17:09.797Z,16.70
2022-10-18T04:19:41.266Z,16.80
2022-10-18T04:22:15.497Z,16.70
2022-10-18T04:24:46.230Z,16.70
2022-10-18T04:27:17.112Z,16.70
2022-10-18T04:29:49.332Z,16.70
2022-10-18T04:32:23.705Z,16.80
2022-10-18T04:34:54.428Z,16.80
2022-10-18T04:37:29.470Z,16.80
2022-10-18T04:40:03.690Z,16.80
2022-10-18T04:42:34.463Z,16.80
2022-10-18T04:45:05.290Z,17.00
2022-10-18T04:47:39.636Z,16.80
2022-10-18T04:50:12.938Z,16.70
2022-10-18T04:55:19.155Z,18.10
2022-10-18T04:57:52.752Z,16.70
2022-10-18T05:00:23.742Z,17.00
2022-10-18T05:02:59.511Z,16.70
2022-10-18T05:05:49.983Z,17.00
2022-10-18T05:08:33.236Z,16.70
2022-10-18T05:11:04.765Z,16.70
2022-10-18T05:13:34.604Z,16.80
2022-10-18T05:16:11.474Z,16.80
2022-10-18T05:18:44.551Z,16.80
2022-10-18T05:21:15.508Z,16.80
2022-10-18T05:23:51.940Z,16.80
2022-10-18T05:26:26.706Z,16.80
2022-10-18T05:28:57.691Z,16.80
2022-10-18T05:31:28.513Z,16.80
2022-10-18T05:34:01.989Z,16.80
2022-10-18T05:36:32.802Z,17.00
2022-10-18T05:39:09.817Z,16.80
2022-10-18T05:41:43.256Z,16.80
2022-10-18T05:44:16.267Z,18.10
2022-10-18T05:46:47.041Z,16.80
2022-10-18T05:49:18.210Z,16.80
2022-10-18T05:51:49.103Z,16.80
2022-10-18T05:54:24.618Z,16.80
2022-10-18T05:56:55.457Z,16.80
2022-10-18T05:59:26.407Z,17.00
2022-10-18T06:02:03.697Z,16.80
2022-10-18T06:04:35.052Z,16.80
2022-10-18T06:07:06.197Z,16.70
2022-10-18T06:09:40.368Z,16.70
2022-10-18T06:12:15.717Z,16.70
2022-10-18T06:14:47.455Z,16.80
2022-10-18T06:17:18.204Z,16.70
2022-10-18T06:19:52.621Z,16.70
2022-10-18T06:22:26.758Z,16.80
2022-10-18T06:25:00.190Z,16.70
2022-10-18T06:27:34.622Z,17.10
2022-10-18T06:30:06.410Z,16.90
2022-10-18T06:32:37.141Z,16.80
2022-10-18T06:35:09.192Z,18.20
2022-10-18T06:40:39.435Z,17.20
2022-10-18T06:43:20.488Z,16.90
2022-10-18T06:45:55.608Z,16.90
2022-10-18T06:48:27.504Z,16.90
2022-10-18T06:50:59.710Z,18.20
2022-10-18T06:53:33.309Z,16.90
2022-10-18T06:56:11.350Z,16.70
2022-10-18T06:58:42.440Z,16.90
2022-10-18T07:01:17.383Z,16.90
2022-10-18T07:03:51.292Z,18.20
2022-10-18T07:06:23.436Z,17.30
2022-10-18T07:08:55.400Z,17.20
2022-10-18T07:11:30.447Z,16.90
2022-10-18T07:14:06.238Z,16.90
2022-10-18T07:16:37.350Z,16.90
2022-10-18T07:19:10.439Z,18.10
2022-10-18T07:21:41.260Z,16.90
2022-10-18T07:24:12.011Z,16.90
2022-10-18T07:26:47.324Z,17.00
2022-10-18T07:29:18.235Z,17.00
2022-10-18T07:31:49.707Z,17.20
2022-10-18T07:34:20.502Z,17.10
2022-10-18T07:36:53.335Z,17.10
2022-10-18T07:39:24.683Z,18.10
2022-10-18T07:41:58.084Z,17.10
2022-10-18T07:44:32.806Z,17.20
2022-10-18T07:47:03.548Z,17.20
2022-10-18T07:49:34.635Z,17.20
2022-10-18T07:52:07.068Z,17.10
2022-10-18T07:54:40.136Z,17.20
2022-10-18T07:57:14.033Z,17.20
2022-10-18T07:59:46.315Z,18.10
2022-10-18T08:02:17.332Z,17.30
2022-10-18T08:04:50.185Z,17.30
2022-10-18T08:07:21.099Z,17.30
2022-10-18T08:09:51.928Z,17.30
2022-10-18T08:12:26.828Z,17.30
2022-10-18T08:15:01.387Z,17.40
2022-10-18T08:17:32.307Z,17.30
2022-10-18T08:20:12.580Z,17.30
2022-10-18T08:22:55.475Z,17.20
2022-10-18T08:25:31.313Z,17.20
2022-10-18T08:28:06.177Z,17.20
2022-10-18T08:30:39.960Z,17.20
2022-10-18T08:33:10.939Z,17.20
2022-10-18T08:35:44.957Z,17.20
2022-10-18T08:38:19.438Z,17.20
2022-10-18T08:40:50.289Z,17.50
2022-10-18T08:43:37.260Z,16.80
2022-10-18T08:46:09.673Z,17.20
2022-10-18T08:48:48.621Z,17.20
2022-10-18T08:51:27.622Z,17.20
2022-10-18T08:54:09.870Z,15.80
2022-10-18T08:56:44.459Z,17.20
2022-10-18T08:59:20.883Z,18.50
2022-10-18T09:02:05.454Z,18.10
2022-10-18T09:04:49.443Z,17.10
2022-10-18T09:07:41.780Z,17.10
2022-10-18T09:10:33.512Z,17.10
2022-10-18T09:13:18.860Z,17.10
2022-10-18T09:15:57.767Z,17.10
2022-10-18T09:18:42.211Z,17.30
2022-10-18T09:21:22.769Z,17.10
2022-10-18T09:24:07.702Z,17.10
2022-10-18T09:26:46.008Z,17.10
2022-10-18T09:29:39.466Z,17.00
2022-10-18T09:32:22.680Z,17.10
2022-10-18T09:34:56.937Z,17.60
2022-10-18T09:37:30.783Z,17.10
2022-10-18T09:40:18.859Z,17.20
2022-10-18T09:43:03.311Z,18.20
2022-10-18T09:45:37.955Z,17.30
2022-10-18T09:48:25.950Z,17.10
2022-10-18T09:51:01.373Z,17.20
2022-10-18T09:53:40.171Z,17.20
2022-10-18T09:56:14.750Z,17.30
2022-10-18T09:58:47.089Z,17.40
2022-10-18T10:01:22.568Z,17.30
2022-10-18T10:03:58.952Z,17.40
2022-10-18T10:06:31.459Z,17.70
2022-10-18T10:09:16.714Z,17.40
2022-10-18T10:11:49.916Z,18.90
2022-10-18T10:14:23.642Z,18.00
2022-10-18T10:16:59.644Z,17.70
2022-10-18T10:19:37.015Z,17.90
2022-10-18T10:22:11.715Z,17.80
2022-10-18T10:25:00.390Z,17.80
2022-10-18T10:27:34.979Z,17.80
2022-10-18T10:30:07.601Z,17.70
2022-10-18T10:32:50.338Z,17.70
2022-10-18T10:38:28.126Z,17.90
2022-10-18T10:41:02.901Z,17.80
2022-10-18T10:43:38.742Z,17.70
2022-10-18T10:46:14.678Z,17.80
2022-10-18T10:48:59.542Z,17.80
2022-10-18T10:51:53.622Z,18.30
2022-10-18T10:54:37.112Z,18.20
2022-10-18T10:57:18.600Z,17.80
2022-10-18T10:59:51.893Z,19.10
2022-10-18T11:02:24.967Z,17.70
2022-10-18T11:05:01.973Z,17.70
2022-10-18T11:07:40.845Z,17.80
2022-10-18T11:10:23.413Z,17.90
2022-10-18T11:13:03.045Z,18.10
2022-10-18T11:15:45.141Z,18.10
2022-10-18T11:18:24.519Z,18.20
2022-10-18T11:21:01.759Z,18.30
2022-10-18T11:23:41.954Z,18.30
2022-10-18T11:26:40.894Z,18.30
2022-10-18T11:29:40.683Z,18.30
2022-10-18T11:32:20.540Z,18.30
2022-10-18T11:35:11.003Z,18.30
2022-10-18T11:37:54.882Z,19.00
2022-10-18T11:40:44.496Z,19.80
2022-10-18T11:43:30.157Z,19.20
2022-10-18T11:46:14.481Z,18.70
2022-10-18T11:49:10.852Z,18.80
2022-10-18T11:52:07.816Z,18.70
2022-10-18T11:55:17.022Z,18.80
2022-10-18T11:58:02.232Z,18.90
2022-10-18T12:00:44.770Z,19.10
2022-10-18T12:03:25.862Z,19.00
2022-10-18T12:06:00.797Z,19.10
2022-10-18T12:08:42.179Z,19.20
2022-10-18T12:11:17.510Z,19.20
2022-10-18T12:14:02.159Z,19.10
2022-10-18T12:16:50.869Z,19.00
2022-10-18T12:19:27.292Z,19.00
2022-10-18T12:22:00.707Z,18.90
2022-10-18T12:24:34.508Z,18.80
2022-10-18T12:27:09.185Z,18.70
2022-10-18T12:29:50.209Z,18.60
2022-10-18T12:32:28.210Z,19.40
2022-10-18T12:35:03.324Z,18.50
2022-10-18T12:37:54.491Z,18.60
2022-10-18T12:40:29.900Z,18.80
2022-10-18T12:43:03.202Z,19.20
2022-10-18T12:45:49.091Z,18.80
2022-10-18T12:48:34.586Z,18.70
2022-10-18T12:51:12.171Z,18.70
2022-10-18T12:54:13.479Z,18.60
2022-10-18T12:56:51.174Z,18.60
2022-10-18T12:59:48.869Z,18.60
2022-10-18T13:02:35.340Z,18.70
2022-10-18T13:05:57.173Z,18.70
2022-10-18T13:08:45.987Z,18.70
2022-10-18T13:11:45.846Z,18.70
2022-10-18T13:15:24.925Z,18.70
2022-10-18T13:18:09.337Z,18.70
2022-10-18T13:20:44.130Z,18.70
2022-10-18T13:23:38.150Z,18.80
2022-10-18T13:26:26.569Z,18.80
2022-10-18T13:29:04.824Z,18.90
2022-10-18T13:31:48.527Z,19.00
2022-10-18T13:34:38.173Z,19.10
2022-10-18T13:37:30.120Z,19.20
2022-10-18T13:40:25.770Z,19.30
2022-10-18T13:42:59.055Z,19.40
2022-10-18T13:45:55.821Z,20.70
2022-10-18T13:48:51.195Z,19.60
2022-10-18T13:51:53.537Z,19.50
2022-10-18T13:54:42.270Z,19.20
2022-10-18T13:57:46.108Z,19.30
2022-10-18T14:00:48.277Z,19.60
2022-10-18T14:03:58.372Z,19.20
2022-10-18T14:06:39.465Z,19.30
2022-10-18T14:09:26.098Z,19.20
2022-10-18T14:12:20.843Z,19.20
2022-10-18T14:14:59.269Z,19.20
2022-10-18T14:20:49.032Z,19.70
2022-10-18T14:23:28.174Z,19.00
2022-10-18T14:26:09.311Z,19.20
2022-10-18T14:28:59.598Z,19.20
2022-10-18T14:31:31.378Z,19.20
2022-10-18T14:34:03.583Z,19.20
2022-10-18T14:36:44.319Z,19.30
2022-10-18T14:39:23.502Z,19.00
2022-10-18T14:41:56.801Z,19.40
2022-10-18T14:44:29.562Z,19.10
2022-10-18T14:47:05.502Z,19.00
2022-10-18T14:49:44.890Z,18.90
2022-10-18T14:52:20.413Z,18.90
2022-10-18T14:54:58.031Z,18.80
2022-10-18T14:57:36.157Z,18.80
2022-10-18T15:00:14.847Z,19.10
2022-10-18T15:02:45.957Z,18.70
2022-10-18T15:05:23.430Z,19.40
2022-10-18T15:08:00.832Z,18.50
2022-10-18T15:10:36.340Z,18.50
2022-10-18T15:13:10.279Z,18.70
2022-10-18T15:15:46.184Z,18.40
2022-10-18T15:18:24.132Z,18.80
2022-10-18T15:21:22.023Z,18.30
2022-10-18T15:23:58.718Z,18.30
2022-10-18T15:26:33.706Z,18.10
2022-10-18T15:29:07.051Z,19.00
2022-10-18T15:31:46.095Z,18.00
2022-10-18T15:34:22.990Z,18.00
2022-10-18T15:37:00.720Z,17.90
2022-10-18T15:39:33.025Z,17.90
2022-10-18T15:42:06.632Z,17.80
2022-10-18T15:44:53.569Z,17.70
2022-10-18T15:47:25.163Z,17.90
2022-10-18T15:50:02.996Z,17.60
2022-10-18T15:52:42.604Z,17.50
2022-10-18T15:55:46.070Z,17.80
2022-10-18T15:58:25.558Z,17.30
2022-10-18T16:01:04.433Z,17.00
2022-10-18T16:03:40.322Z,17.40
2022-10-18T16:06:16.000Z,17.20
2022-10-18T16:08:51.453Z,16.90
2022-10-18T16:11:28.272Z,16.80
2022-10-18T16:14:01.879Z,16.80
2022-10-18T16:16:32.806Z,16.70
2022-10-18T16:19:11.779Z,16.40
2022-10-18T16:21:42.836Z,16.50
2022-10-18T16:24:13.852Z,16.30
2022-10-18T16:26:53.079Z,16.60
2022-10-18T16:29:32.995Z,16.90
2022-10-18T16:32:03.898Z,16.00
2022-10-18T16:34:37.525Z,15.90
2022-10-18T16:37:08.482Z,15.80
2022-10-18T16:39:44.232Z,15.60
2022-10-18T16:42:25.359Z,15.50
2022-10-18T16:44:58.733Z,15.40
2022-10-18T16:47:29.740Z,15.40
2022-10-18T16:50:08.279Z,15.30
2022-10-18T16:52:39.105Z,15.10
2022-10-18T16:55:18.552Z,15.00
2022-10-18T16:57:51.099Z,14.90
2022-10-18T17:00:25.964Z,14.90
2022-10-18T17:02:58.428Z,14.80
2022-10-18T17:05:31.192Z,14.50
2022-10-18T17:08:04.447Z,15.20
2022-10-18T17:10:35.834Z,14.50
2022-10-18T17:13:10.599Z,14.40
2022-10-18T17:15:44.489Z,14.30
2022-10-18T17:18:19.539Z,14.30
2022-10-18T17:20:52.590Z,14.20
2022-10-18T17:23:23.619Z,14.10
2022-10-18T17:26:04.954Z,13.80
2022-10-18T17:28:42.370Z,14.00
2022-10-18T17:31:18.363Z,14.30
2022-10-18T17:33:49.355Z,13.90
2022-10-18T17:36:24.721Z,13.90
2022-10-18T17:38:56.266Z,13.80
2022-10-18T17:41:27.254Z,13.70
2022-10-18T17:44:02.494Z,13.70
2022-10-18T17:46:45.099Z,13.70
2022-10-18T17:49:18.402Z,13.60
2022-10-18T17:51:51.249Z,13.50
2022-10-18T17:54:22.254Z,13.30
2022-10-18T17:56:58.471Z,13.40
2022-10-18T17:59:31.564Z,13.00
2022-10-18T18:02:04.993Z,13.40
2022-10-18T18:04:41.952Z,13.30
2022-10-18T18:07:17.248Z,13.20
2022-10-18T18:09:59.773Z,13.20
2022-10-18T18:12:36.186Z,13.10
2022-10-18T18:15:15.272Z,13.10
2022-10-18T18:17:58.779Z,13.10
2022-10-18T18:20:32.884Z,13.00
2022-10-18T18:23:04.322Z,13.00
2022-10-18T18:25:42.296Z,12.90
2022-10-18T18:28:13.078Z,13.00
2022-10-18T18:30:45.056Z,12.30
2022-10-18T18:33:23.277Z,12.90
2022-10-18T18:35:58.818Z,12.80
2022-10-18T18:38:30.420Z,12.70
2022-10-18T18:41:11.655Z,12.60
2022-10-18T18:43:44.822Z,12.60
2022-10-18T18:46:18.318Z,12.60
2022-10-18T18:48:58.744Z,12.60
2022-10-18T18:51:32.858Z,12.40
2022-10-18T18:54:04.739Z,12.40
2022-10-18T18:56:43.270Z,12.80
2022-10-18T18:59:17.294Z,12.40
2022-10-18T19:01:51.138Z,12.40
2022-10-18T19:04:24.661Z,12.30
2022-10-18T19:06:55.463Z,12.30
2022-10-18T19:09:27.399Z,12.20
2022-10-18T19:12:02.290Z,12.20
2022-10-18T19:14:33.122Z,12.20
2022-10-18T19:17:07.323Z,12.60
2022-10-18T19:19:41.302Z,12.10
2022-10-18T19:22:15.234Z,12.00
2022-10-18T19:24:48.344Z,12.00
2022-10-18T19:27:19.301Z,12.40
2022-10-18T19:29:50.202Z,11.90
2022-10-18T19:32:23.468Z,11.90
2022-10-18T19:34:56.830Z,11.10
2022-10-18T19:37:27.776Z,11.80
2022-10-18T19:39:59.318Z,11.80
2022-10-18T19:42:31.940Z,11.70
2022-10-18T19:45:06.450Z,11.60
2022-10-18T19:47:38.537Z,11.50
2022-10-18T19:50:14.596Z,11.50
2022-10-18T19:52:47.633Z,11.60
2022-10-18T19:55:18.908Z,11.50
2022-10-18T19:57:49.756Z,11.50
2022-10-18T20:00:20.609Z,11.40
2022-10-18T20:02:55.099Z,11.40
2022-10-18T20:05:28.516Z,11.30
2022-10-18T20:08:00.448Z,11.40
2022-10-18T20:10:33.442Z,11.30
2022-10-18T20:13:05.617Z,11.30
2022-10-18T20:15:40.569Z,11.30
2022-10-18T20:18:11.850Z,11.30
2022-10-18T20:20:49.372Z,11.20
2022-10-18T20:23:21.388Z,11.20
2022-10-18T20:26:04.232Z,11.20
2022-10-18T20:28:35.792Z,11.10
2022-10-18T20:31:09.095Z,11.00
2022-10-18T20:33:44.438Z,11.00
2022-10-18T20:36:19.873Z,11.00
2022-10-18T20:38:51.542Z,11.00
2022-10-18T20:41:34.245Z,10.90
2022-10-18T20:44:07.003Z,10.80
2022-10-18T20:46:39.792Z,10.70
2022-10-18T20:49:16.408Z,10.80
2022-10-18T20:51:49.872Z,10.80
2022-10-18T20:54:23.644Z,10.70
2022-10-18T20:56:55.653Z,10.60
2022-10-18T20:59:26.513Z,10.60
2022-10-18T21:01:57.203Z,10.50
2022-10-18T21:04:28.165Z,10.50
2022-10-18T21:07:01.951Z,10.50
2022-10-18T21:09:32.642Z,10.50
2022-10-18T21:14:49.840Z,10.50
2022-10-18T21:17:20.625Z,10.40
2022-10-18T21:19:52.123Z,10.40
2022-10-18T21:22:26.074Z,10.40
2022-10-18T21:24:57.011Z,10.30
2022-10-18T21:27:30.478Z,10.30
2022-10-18T21:30:01.767Z,10.30
2022-10-18T21:32:38.247Z,10.30
2022-10-18T21:35:10.180Z,10.20
2022-10-18T21:37:43.947Z,9.80
2022-10-18T21:40:17.446Z,10.20
2022-10-18T21:42:48.224Z,10.10
2022-10-18T21:45:19.080Z,10.10
2022-10-18T21:47:52.029Z,10.40
2022-10-18T21:50:27.928Z,10.10
2022-10-18T21:53:01.393Z,10.10
2022-10-18T21:55:35.723Z,10.00
2022-10-18T21:58:11.031Z,10.00
2022-10-18T22:00:42.218Z,9.50
2022-10-18T22:03:14.819Z,9.90
2022-10-18T22:05:49.759Z,9.90
2022-10-18T22:08:23.679Z,9.90
2022-10-18T22:10:55.029Z,9.90
2022-10-18T22:13:29.252Z,9.80
2022-10-18T22:16:05.345Z,10.00
2022-10-18T22:18:37.320Z,9.70
2022-10-18T22:21:14.076Z,9.60
2022-10-18T22:23:49.038Z,9.70
2022-10-18T22:26:21.747Z,9.70
2022-10-18T22:28:58.110Z,9.70
2022-10-18T22:31:31.704Z,9.70
2022-10-18T22:34:06.106Z,9.70
2022-10-18T22:36:38.427Z,9.70
2022-10-18T22:39:13.544Z,9.60
2022-10-18T22:41:45.240Z,9.60
2022-10-18T22:44:20.165Z,9.50
2022-10-18T22:46:50.956Z,9.50
2022-10-18T22:49:21.801Z,9.50
2022-10-18T22:51:52.524Z,9.50
2022-10-18T22:54:27.708Z,9.50
2022-10-18T22:56:58.474Z,9.50
2022-10-18T22:59:29.270Z,9.40
2022-10-18T23:02:01.606Z,9.40
2022-10-18T23:04:33.169Z,9.40
2022-10-18T23:07:03.923Z,9.40
2022-10-18T23:09:37.427Z,9.30
2022-10-18T23:12:10.438Z,9.30
2022-10-18T23:14:41.209Z,9.30
2022-10-18T23:17:13.935Z,9.30
2022-10-18T23:19:44.647Z,9.40
2022-10-18T23:22:21.229Z,9.30
2022-10-18T23:24:54.631Z,9.30
2022-10-18T23:27:25.424Z,9.30
2022-10-18T23:29:57.787Z,9.60
2022-10-18T23:32:29.253Z,9.20
2022-10-18T23:35:00.585Z,9.20
2022-10-18T23:37:31.572Z,9.20
2022-10-18T23:40:06.843Z,9.20
2022-10-18T23:42:37.608Z,9.20
2022-10-18T23:45:10.083Z,9.10
2022-10-18T23:47:45.254Z,9.10
2022-10-18T23:50:16.939Z,9.10
2022-10-18T23:52:47.990Z,9.00
2022-10-18T23:55:23.893Z,9.00
2022-10-18T23:57:55.262Z,9.00
